createdAt,value
2022-12-17T00:02:13.684Z,5.60
2022-12-17T00:04:59.152Z,5.50
2022-12-17T00:07:44.772Z,5.60
2022-12-17T00:10:30.307Z,5.60
2022-12-17T00:13:15.495Z,5.60
2022-12-17T00:16:01.151Z,5.70
2022-12-17T00:18:46.308Z,5.80
2022-12-17T00:21:31.762Z,5.70
2022-12-17T00:24:17.010Z,5.80
2022-12-17T00:27:02.207Z,6.00
2022-12-17T00:29:47.684Z,5.90
2022-12-17T00:32:33.002Z,5.90
2022-12-17T00:35:18.409Z,5.90
2022-12-17T00:38:06.460Z,5.80
2022-12-17T00:40:51.865Z,5.80
2022-12-17T00:43:37.595Z,5.80
2022-12-17T00:46:23.221Z,5.90
2022-12-17T00:49:08.482Z,5.90
2022-12-17T00:51:53.705Z,5.90
2022-12-17T00:54:38.826Z,5.80
2022-12-17T00:57:24.297Z,5.80
2022-12-17T01:00:12.212Z,5.80
2022-12-17T01:02:57.395Z,5.80
2022-12-17T01:05:44.558Z,5.90
2022-12-17T01:08:32.312Z,5.90
2022-12-17T01:11:23.375Z,5.90
2022-12-17T01:14:09.069Z,5.80
2022-12-17T01:16:56.184Z,5.70
2022-12-17T01:19:42.001Z,5.70
2022-12-17T01:22:27.421Z,5.80
2022-12-17T01:25:12.980Z,5.60
2022-12-17T01:27:58.431Z,5.70
2022-12-17T01:30:45.261Z,5.60
2022-12-17T01:33:31.833Z,5.60
2022-12-17T01:36:17.810Z,5.60
2022-12-17T01:39:03.372Z,5.60
2022-12-17T01:41:48.907Z,5.60
2022-12-17T01:45:12.246Z,5.50
2022-12-17T01:48:14.669Z,5.50
2022-12-17T01:51:04.504Z,5.60
2022-12-17T01:53:53.468Z,5.50
2022-12-17T01:56:40.144Z,5.70
2022-12-17T01:59:28.048Z,5.70
2022-12-17T02:02:13.593Z,5.60
2022-12-17T02:04:59.349Z,5.60
2022-12-17T02:08:07.023Z,5.50
2022-12-17T02:11:02.838Z,5.50
2022-12-17T02:13:55.641Z,5.50
2022-12-17T02:16:46.712Z,5.40
2022-12-17T02:19:49.882Z,5.50
2022-12-17T02:23:03.164Z,5.50
2022-12-17T02:26:22.625Z,5.50
2022-12-17T02:29:10.419Z,5.50
2022-12-17T02:31:59.135Z,5.40
2022-12-17T02:34:44.470Z,5.40
2022-12-17T02:37:29.897Z,5.30
2022-12-17T02:40:15.883Z,5.40
2022-12-17T02:43:05.823Z,5.40
2022-12-17T02:45:54.107Z,5.40
2022-12-17T02:48:39.934Z,5.40
2022-12-17T02:51:25.268Z,5.30
2022-12-17T02:54:12.338Z,5.30
2022-12-17T02:56:57.848Z,5.30
2022-12-17T02:59:43.343Z,5.20
2022-12-17T03:02:34.541Z,5.10
2022-12-17T03:05:43.995Z,5.00
2022-12-17T03:08:25.279Z,5.10
2022-12-17T03:11:10.496Z,5.00
2022-12-17T03:13:55.970Z,4.90
2022-12-17T03:16:41.401Z,4.90
2022-12-17T03:19:28.252Z,4.80
2022-12-17T03:22:14.844Z,4.90
2022-12-17T03:25:00.336Z,4.80
2022-12-17T03:27:45.752Z,5.00
2022-12-17T03:30:35.799Z,4.90
2022-12-17T03:33:21.819Z,5.00
2022-12-17T03:36:07.290Z,5.30
2022-12-17T03:38:52.771Z,5.00
2022-12-17T03:41:38.201Z,5.10
2022-12-17T03:44:23.295Z,5.00
2022-12-17T03:47:08.798Z,4.80
2022-12-17T03:49:54.271Z,4.80
2022-12-17T03:52:39.750Z,4.70
2022-12-17T03:55:25.371Z,4.60
2022-12-17T03:58:10.806Z,4.60
2022-12-17T04:00:56.227Z,4.50
2022-12-17T04:03:41.629Z,4.50
2022-12-17T04:06:27.286Z,5.20
2022-12-17T04:09:12.784Z,4.40
2022-12-17T04:11:58.110Z,4.40
2022-12-17T04:14:43.353Z,4.40
2022-12-17T04:17:28.745Z,4.30
2022-12-17T04:20:14.200Z,4.20
2022-12-17T04:22:59.489Z,4.30
2022-12-17T04:25:44.948Z,4.20
2022-12-17T04:28:30.504Z,4.20
2022-12-17T04:31:15.998Z,4.20
2022-12-17T04:34:01.335Z,4.20
2022-12-17T04:36:46.601Z,4.20
2022-12-17T04:39:32.041Z,4.20
2022-12-17T04:42:17.231Z,4.30
2022-12-17T04:45:02.600Z,4.40
2022-12-17T04:47:47.884Z,5.30
2022-12-17T04:50:33.389Z,4.50
2022-12-17T04:53:24.032Z,4.50
2022-12-17T04:56:10.580Z,4.60
2022-12-17T04:58:56.117Z,4.60
2022-12-17T05:01:41.571Z,4.70
2022-12-17T05:04:26.820Z,4.70
2022-12-17T05:07:12.320Z,4.70
2022-12-17T05:09:57.611Z,4.70
2022-12-17T05:12:42.964Z,4.60
2022-12-17T05:15:28.311Z,4.70
2022-12-17T05:18:13.715Z,4.60
2022-12-17T05:20:58.973Z,4.60
2022-12-17T05:23:44.454Z,4.70
2022-12-17T05:26:40.796Z,4.70
2022-12-17T05:29:26.231Z,4.70
2022-12-17T05:32:11.795Z,4.70
2022-12-17T05:34:57.295Z,4.70
2022-12-17T05:37:43.223Z,4.70
2022-12-17T05:40:29.200Z,4.70
2022-12-17T05:43:14.523Z,4.70
2022-12-17T05:46:00.539Z,4.70
2022-12-17T05:48:45.875Z,4.70
2022-12-17T05:51:35.717Z,4.70
2022-12-17T05:54:23.941Z,4.60
2022-12-17T05:57:09.622Z,6.50
2022-12-17T05:59:55.083Z,4.60
2022-12-17T06:02:40.607Z,4.60
2022-12-17T06:05:26.908Z,4.60
2022-12-17T06:08:12.216Z,4.60
2022-12-17T06:10:57.848Z,4.50
2022-12-17T06:13:43.487Z,4.50
2022-12-17T06:16:28.886Z,4.50
2022-12-17T06:19:14.157Z,4.40
2022-12-17T06:21:59.659Z,4.30
2022-12-17T06:24:46.279Z,4.30
2022-12-17T06:27:31.957Z,4.30
2022-12-17T06:30:18.901Z,4.20
2022-12-17T06:33:24.326Z,4.20
2022-12-17T06:36:15.380Z,5.10
2022-12-17T06:39:05.543Z,4.20
2022-12-17T06:41:50.975Z,4.20
2022-12-17T06:44:56.092Z,4.20
2022-12-17T06:47:42.413Z,4.10
2022-12-17T06:50:27.867Z,4.10
2022-12-17T06:53:21.035Z,4.10
2022-12-17T06:56:06.502Z,4.10
2022-12-17T06:58:51.899Z,4.10
2022-12-17T07:01:37.478Z,4.10
2022-12-17T07:04:23.448Z,4.10
2022-12-17T07:07:08.944Z,4.10
2022-12-17T07:09:54.067Z,4.20
2022-12-17T07:12:39.231Z,4.20
2022-12-17T07:15:25.088Z,4.30
2022-12-17T07:18:20.860Z,4.30
2022-12-17T07:21:07.697Z,4.30
2022-12-17T07:24:06.863Z,4.40
2022-12-17T07:26:52.276Z,4.30
2022-12-17T07:29:37.705Z,4.40
2022-12-17T07:32:23.054Z,4.50
2022-12-17T07:35:08.441Z,4.50
2022-12-17T07:37:54.072Z,4.50
2022-12-17T07:40:39.470Z,4.50
2022-12-17T07:43:32.115Z,4.50
2022-12-17T07:46:17.502Z,4.50
2022-12-17T07:49:03.324Z,4.50
2022-12-17T07:51:48.960Z,4.50
2022-12-17T07:54:34.638Z,4.60
2022-12-17T07:57:19.853Z,4.50
2022-12-17T08:00:05.451Z,4.50
2022-12-17T08:02:50.708Z,4.30
2022-12-17T08:05:36.023Z,4.40
2022-12-17T08:08:28.752Z,4.40
2022-12-17T08:11:14.564Z,4.40
2022-12-17T08:14:00.091Z,4.40
2022-12-17T08:16:45.703Z,4.40
2022-12-17T08:19:31.019Z,4.40
2022-12-17T08:22:16.281Z,4.40
2022-12-17T08:25:01.851Z,4.40
2022-12-17T08:27:47.266Z,4.50
2022-12-17T08:30:32.933Z,4.50
2022-12-17T08:33:22.212Z,4.50
2022-12-17T08:36:15.651Z,4.60
2022-12-17T08:39:01.120Z,4.40
2022-12-17T08:41:52.702Z,4.40
2022-12-17T08:44:39.603Z,4.50
2022-12-17T08:47:24.996Z,4.50
2022-12-17T08:50:10.248Z,4.40
2022-12-17T08:52:55.763Z,4.50
2022-12-17T08:55:41.229Z,4.50
2022-12-17T08:58:27.350Z,4.60
2022-12-17T09:01:13.009Z,4.70
2022-12-17T09:03:58.231Z,4.80
2022-12-17T09:06:43.355Z,4.80
2022-12-17T09:09:28.901Z,4.80
2022-12-17T09:12:14.132Z,4.70
2022-12-17T09:14:59.512Z,4.80
2022-12-17T09:17:44.793Z,5.00
2022-12-17T09:20:30.486Z,5.00
2022-12-17T09:23:16.302Z,4.90
2022-12-17T09:26:01.717Z,4.80
2022-12-17T09:28:47.284Z,4.80
2022-12-17T09:31:37.217Z,4.70
2022-12-17T09:34:22.874Z,4.70
2022-12-17T09:37:08.537Z,4.70
2022-12-17T09:39:54.042Z,4.70
2022-12-17T09:42:56.868Z,4.70
2022-12-17T09:46:02.972Z,4.80
2022-12-17T09:49:16.939Z,4.80
2022-12-17T09:52:02.469Z,4.80
2022-12-17T09:55:01.231Z,4.90
2022-12-17T09:57:50.576Z,5.00
2022-12-17T10:00:37.655Z,5.00
2022-12-17T10:03:30.487Z,5.10
2022-12-17T10:06:22.615Z,5.10
2022-12-17T10:09:14.578Z,5.10
2022-12-17T10:12:00.096Z,5.10
2022-12-17T10:14:45.443Z,5.10
2022-12-17T10:17:35.101Z,5.10
2022-12-17T10:20:21.413Z,5.00
2022-12-17T10:23:08.928Z,5.10
2022-12-17T10:25:54.627Z,5.00
2022-12-17T10:28:42.804Z,5.10
2022-12-17T10:31:37.427Z,5.00
2022-12-17T10:34:27.591Z,5.10
2022-12-17T10:37:12.963Z,5.10
2022-12-17T10:40:00.290Z,5.20
2022-12-17T10:42:56.319Z,5.30
2022-12-17T10:45:59.867Z,5.30
2022-12-17T10:48:47.300Z,5.30
2022-12-17T10:51:51.084Z,5.20
2022-12-17T10:54:48.947Z,5.20
2022-12-17T10:57:43.466Z,5.20
2022-12-17T11:00:50.018Z,5.20
2022-12-17T11:03:56.367Z,5.20
2022-12-17T11:06:52.385Z,5.30
2022-12-17T11:09:40.965Z,5.20
2022-12-17T11:12:31.113Z,5.20
2022-12-17T11:15:22.829Z,5.20
2022-12-17T11:18:11.577Z,5.30
2022-12-17T11:21:09.260Z,5.40
2022-12-17T11:23:58.473Z,5.50
2022-12-17T11:26:45.672Z,5.50
2022-12-17T11:29:32.731Z,5.60
2022-12-17T11:32:34.842Z,5.60
2022-12-17T11:35:39.241Z,5.60
2022-12-17T11:39:05.371Z,5.70
2022-12-17T11:42:17.829Z,5.80
2022-12-17T11:45:26.028Z,5.80
2022-12-17T11:48:29.026Z,5.70
2022-12-17T11:51:27.141Z,5.60
2022-12-17T11:54:30.445Z,5.70
2022-12-17T11:57:23.790Z,5.80
2022-12-17T12:00:37.389Z,5.80
2022-12-17T12:03:48.669Z,5.80
2022-12-17T12:06:48.457Z,5.80
2022-12-17T12:09:57.001Z,5.80
2022-12-17T12:12:54.288Z,5.90
2022-12-17T12:16:06.787Z,5.70
2022-12-17T12:19:04.185Z,5.70
2022-12-17T12:22:14.988Z,5.60
2022-12-17T12:25:06.679Z,5.50
2022-12-17T12:28:33.216Z,5.60
2022-12-17T12:31:34.396Z,5.50
2022-12-17T12:34:25.808Z,5.40
2022-12-17T12:37:11.812Z,5.30
2022-12-17T12:40:21.236Z,5.40
2022-12-17T12:43:19.652Z,5.40
2022-12-17T12:46:35.552Z,5.40
2022-12-17T12:49:26.492Z,5.40
2022-12-17T12:52:14.393Z,5.40
2022-12-17T12:55:05.476Z,5.20
2022-12-17T12:58:20.066Z,5.20
2022-12-17T13:01:08.490Z,5.20
2022-12-17T13:04:08.979Z,5.20
2022-12-17T13:06:50.873Z,5.20
2022-12-17T13:09:23.542Z,5.30
2022-12-17T13:11:53.828Z,5.30
2022-12-17T13:14:41.361Z,5.30
2022-12-17T13:17:34.343Z,5.50
2022-12-17T13:20:31.626Z,5.50
2022-12-17T13:23:18.376Z,5.50
2022-12-17T13:25:45.219Z,5.50
2022-12-17T13:28:31.054Z,5.50
2022-12-17T13:31:03.601Z,5.40
2022-12-17T13:33:55.777Z,5.40
2022-12-17T13:37:05.992Z,5.40
2022-12-17T13:39:48.527Z,5.50
2022-12-17T13:42:25.808Z,5.40
2022-12-17T13:44:54.310Z,5.40
2022-12-17T13:47:28.848Z,5.30
2022-12-17T13:50:32.227Z,5.20
2022-12-17T13:52:45.769Z,5.10
2022-12-17T13:55:22.107Z,5.10
2022-12-17T13:57:50.411Z,5.00
2022-12-17T14:00:28.941Z,4.90
2022-12-17T14:02:57.693Z,4.90
2022-12-17T14:05:33.478Z,5.00
2022-12-17T14:08:03.124Z,4.80
2022-12-17T14:10:30.102Z,4.80
2022-12-17T14:13:08.700Z,4.70
2022-12-17T14:15:35.625Z,4.70
2022-12-17T14:18:03.268Z,4.70
2022-12-17T14:20:36.055Z,4.70
2022-12-17T14:23:18.380Z,4.70
2022-12-17T14:25:45.330Z,4.70
2022-12-17T14:28:23.172Z,4.60
2022-12-17T14:31:24.871Z,4.60
2022-12-17T14:33:38.221Z,4.50
2022-12-17T14:36:21.335Z,4.60
2022-12-17T14:38:57.606Z,4.50
2022-12-17T14:41:43.765Z,4.50
2022-12-17T14:44:21.633Z,4.40
2022-12-17T14:46:49.420Z,4.40
2022-12-17T14:49:19.925Z,4.40
2022-12-17T14:51:48.701Z,4.30
2022-12-17T14:54:19.996Z,4.30
2022-12-17T14:56:48.765Z,4.40
2022-12-17T14:59:34.789Z,4.40
2022-12-17T15:02:16.121Z,4.40
2022-12-17T15:04:42.936Z,4.50
2022-12-17T15:07:17.890Z,4.40
2022-12-17T15:09:45.032Z,4.40
2022-12-17T15:12:11.832Z,4.40
2022-12-17T15:14:38.588Z,4.30
2022-12-17T15:17:05.969Z,4.40
2022-12-17T15:19:33.005Z,4.20
2022-12-17T15:21:59.710Z,4.00
2022-12-17T15:24:27.129Z,4.00
2022-12-17T15:26:55.006Z,4.00
2022-12-17T15:29:21.763Z,4.00
2022-12-17T15:31:48.619Z,3.90
2022-12-17T15:34:15.460Z,3.90
2022-12-17T15:36:42.253Z,4.00
2022-12-17T15:39:09.504Z,4.00
2022-12-17T15:41:55.124Z,3.90
2022-12-17T15:44:21.924Z,4.00
2022-12-17T15:46:48.574Z,4.00
2022-12-17T15:49:15.283Z,3.90
2022-12-17T15:51:41.967Z,3.90
2022-12-17T15:54:08.675Z,3.80
2022-12-17T15:56:37.137Z,3.90
2022-12-17T15:59:03.922Z,3.80
2022-12-17T16:01:30.799Z,3.80
2022-12-17T16:03:58.100Z,3.90
2022-12-17T16:06:24.803Z,3.90
2022-12-17T16:08:51.591Z,3.90
2022-12-17T16:11:18.429Z,3.90
2022-12-17T16:13:45.149Z,3.90
2022-12-17T16:16:11.936Z,3.80
2022-12-17T16:18:39.204Z,3.80
2022-12-17T16:21:08.344Z,3.80
2022-12-17T16:23:36.120Z,3.80
2022-12-17T16:26:05.019Z,3.90
2022-12-17T16:28:32.618Z,3.80
2022-12-17T16:31:11.726Z,3.80
2022-12-17T16:33:40.768Z,3.70
2022-12-17T16:36:10.770Z,3.70
2022-12-17T16:38:46.631Z,3.60
2022-12-17T16:41:14.079Z,3.70
2022-12-17T16:43:40.853Z,3.70
2022-12-17T16:46:29.799Z,3.60
2022-12-17T16:48:58.323Z,3.60
2022-12-17T16:51:29.078Z,3.60
2022-12-17T16:53:57.804Z,3.60
2022-12-17T16:56:28.014Z,3.60
2022-12-17T16:58:55.752Z,3.70
2022-12-17T17:01:29.993Z,3.80
2022-12-17T17:03:57.574Z,3.80
2022-12-17T17:06:28.820Z,3.80
2022-12-17T17:08:59.528Z,3.80
2022-12-17T17:11:26.264Z,3.80
2022-12-17T17:13:54.707Z,3.80
2022-12-17T17:16:26.188Z,3.80
2022-12-17T17:18:54.093Z,3.70
2022-12-17T17:21:21.528Z,3.70
2022-12-17T17:23:50.748Z,3.70
2022-12-17T17:26:17.925Z,3.60
2022-12-17T17:28:48.282Z,3.60
2022-12-17T17:31:16.346Z,3.50
2022-12-17T17:33:48.611Z,3.50
2022-12-17T17:36:17.231Z,3.50
2022-12-17T17:38:44.321Z,3.50
2022-12-17T17:41:13.434Z,3.50
2022-12-17T17:43:40.361Z,3.50
2022-12-17T17:46:18.754Z,3.50
2022-12-17T17:48:47.143Z,3.60
2022-12-17T17:51:16.008Z,3.60
2022-12-17T17:53:42.923Z,3.50
2022-12-17T17:56:15.049Z,3.50
2022-12-17T17:58:43.470Z,3.50
2022-12-17T18:01:12.493Z,3.60
2022-12-17T18:03:39.672Z,5.30
2022-12-17T18:06:08.278Z,3.70
2022-12-17T18:08:36.718Z,3.70
2022-12-17T18:11:05.856Z,3.60
2022-12-17T18:13:51.853Z,3.60
2022-12-17T18:16:20.417Z,3.50
2022-12-17T18:18:47.610Z,3.50
2022-12-17T18:21:16.744Z,3.50
2022-12-17T18:23:43.943Z,3.40
2022-12-17T18:26:14.772Z,3.40
2022-12-17T18:28:43.571Z,3.40
2022-12-17T18:31:22.487Z,3.40
2022-12-17T18:33:52.600Z,3.40
2022-12-17T18:36:22.856Z,3.30
2022-12-17T18:39:02.141Z,3.30
2022-12-17T18:41:47.715Z,3.30
2022-12-17T18:44:15.363Z,3.40
2022-12-17T18:46:43.113Z,3.40
2022-12-17T18:49:12.313Z,3.30
2022-12-17T18:51:41.749Z,3.30
2022-12-17T18:54:13.327Z,3.30
2022-12-17T18:57:00.695Z,3.20
2022-12-17T18:59:29.211Z,3.20
2022-12-17T19:01:56.562Z,3.10
2022-12-17T19:04:24.098Z,3.20
2022-12-17T19:06:54.464Z,3.10
2022-12-17T19:09:24.601Z,3.10
2022-12-17T19:11:53.210Z,3.10
2022-12-17T19:14:22.387Z,3.10
2022-12-17T19:16:51.169Z,3.10
2022-12-17T19:19:19.012Z,3.00
2022-12-17T19:21:45.755Z,3.20
2022-12-17T19:24:15.120Z,3.20
2022-12-17T19:26:42.381Z,3.10
2022-12-17T19:29:10.667Z,3.10
2022-12-17T19:31:38.024Z,3.20
2022-12-17T19:34:07.336Z,3.10
2022-12-17T19:36:35.980Z,3.20
2022-12-17T19:39:06.293Z,3.20
2022-12-17T19:41:33.295Z,3.10
2022-12-17T19:44:12.114Z,3.10
2022-12-17T19:46:39.150Z,3.10
2022-12-17T19:49:08.338Z,3.10
2022-12-17T19:51:38.729Z,3.00
2022-12-17T19:54:08.848Z,2.90
2022-12-17T19:56:36.483Z,2.80
2022-12-17T19:59:07.309Z,4.10
2022-12-17T20:01:37.772Z,2.90
2022-12-17T20:04:05.715Z,2.90
2022-12-17T20:06:34.561Z,2.90
2022-12-17T20:09:04.200Z,2.90
2022-12-17T20:11:34.145Z,2.80
2022-12-17T20:14:14.264Z,2.80
2022-12-17T20:16:46.650Z,2.70
2022-12-17T20:19:15.963Z,2.70
2022-12-17T20:21:43.025Z,2.70
2022-12-17T20:24:10.803Z,2.70
2022-12-17T20:26:37.889Z,2.70
2022-12-17T20:29:05.566Z,2.70
2022-12-17T20:31:33.290Z,2.70
2022-12-17T20:34:01.014Z,2.80
2022-12-17T20:36:27.880Z,2.90
2022-12-17T20:38:55.125Z,2.90
2022-12-17T20:41:25.052Z,3.00
2022-12-17T20:43:51.977Z,2.90
2022-12-17T20:46:20.728Z,2.80
2022-12-17T20:48:48.041Z,2.90
2022-12-17T20:51:20.830Z,2.80
2022-12-17T20:53:47.800Z,2.80
2022-12-17T20:56:17.915Z,2.80
2022-12-17T20:58:45.567Z,2.70
2022-12-17T21:01:15.950Z,2.70
2022-12-17T21:03:42.918Z,2.70
2022-12-17T21:06:35.422Z,2.60
2022-12-17T21:09:02.477Z,2.60
2022-12-17T21:11:31.072Z,2.60
2022-12-17T21:13:58.469Z,2.60
2022-12-17T21:16:28.977Z,2.50
2022-12-17T21:18:58.122Z,2.50
2022-12-17T21:21:28.100Z,2.40
2022-12-17T21:23:56.031Z,3.00
2022-12-17T21:26:31.645Z,2.50
2022-12-17T21:28:58.878Z,2.50
2022-12-17T21:31:41.005Z,2.50
2022-12-17T21:34:11.598Z,2.40
2022-12-17T21:36:39.062Z,2.50
2022-12-17T21:39:09.584Z,2.50
2022-12-17T21:41:39.381Z,2.40
2022-12-17T21:44:13.028Z,2.40
2022-12-17T21:46:40.799Z,2.40
2022-12-17T21:49:07.710Z,2.40
2022-12-17T21:51:34.702Z,2.40
2022-12-17T21:54:08.981Z,2.30
2022-12-17T21:56:36.822Z,2.30
2022-12-17T21:59:03.999Z,2.40
2022-12-17T22:01:33.076Z,2.40
2022-12-17T22:04:02.756Z,2.30
2022-12-17T22:06:33.129Z,2.30
2022-12-17T22:09:08.703Z,2.30
2022-12-17T22:11:44.501Z,2.20
2022-12-17T22:14:18.874Z,2.30
2022-12-17T22:16:49.020Z,2.30
2022-12-17T22:19:22.802Z,2.20
2022-12-17T22:21:51.857Z,2.20
2022-12-17T22:24:24.895Z,2.20
2022-12-17T22:26:52.203Z,2.20
2022-12-17T22:29:37.658Z,2.10
2022-12-17T22:32:25.266Z,2.00
2022-12-17T22:36:29.470Z,2.00
2022-12-17T22:40:41.381Z,2.00
2022-12-17T22:44:33.645Z,1.90
2022-12-17T22:44:41.585Z,2.00
2022-12-17T22:46:18.198Z,1.90
2022-12-17T22:48:45.101Z,2.00
2022-12-17T22:51:14.913Z,1.90
2022-12-17T22:53:48.216Z,1.90
2022-12-17T22:56:24.333Z,1.80
2022-12-17T22:59:02.900Z,1.80
2022-12-17T23:01:30.226Z,1.80
2022-12-17T23:03:59.117Z,1.90
2022-12-17T23:06:26.838Z,1.90
2022-12-17T23:08:54.371Z,2.00
2022-12-17T23:11:24.906Z,2.00
2022-12-17T23:13:52.897Z,2.10
2022-12-17T23:16:20.612Z,2.10
2022-12-17T23:18:49.534Z,2.80
2022-12-17T23:21:25.164Z,2.10
2022-12-17T23:23:53.431Z,2.20
2022-12-17T23:26:29.029Z,2.20
2022-12-17T23:28:58.546Z,2.30
2022-12-17T23:31:27.385Z,2.20
2022-12-17T23:33:54.521Z,2.10
2022-12-17T23:36:23.836Z,2.10
2022-12-17T23:38:51.419Z,2.00
2022-12-17T23:41:24.264Z,2.00
2022-12-17T23:43:51.272Z,1.90
2022-12-17T23:46:19.223Z,1.90
2022-12-17T23:48:47.138Z,1.90
2022-12-17T23:51:15.927Z,1.90
2022-12-17T23:53:43.468Z,1.80
2022-12-17T23:56:15.574Z,1.90
2022-12-17T23:58:44.391Z,1.90
